Decoded Metar for UKHH (KHARKOV in UKRAINE) (IATA:N/A) | Meteo·Mobile Aviation Weather
aviador You're here:

UKHH Decoded Metar

KHARKOV in UKRAINE
Report Time2018-12-15 16:30:00
UTC Time2018-12-15 16:53:14
Flight Rules mvfr MVFR
Wind020° at 6 kt
W.Decomp.*RWY 07: 3.2 kt HW 5.1 kt LCW
W.Rank020° ranks 24
Current wind is below 020° avg. (7.4)
Visibility9999 m
Phenomena:N/A
Clouds:Broken 010 Hf
Overcast 018 Hf
Expected CloudBase > 800 ft AGL from Temp-Dew spread
Ceiling1,000 ft
Temp-2°C (ISA -16)
Dew Point-4°C (86% RH)
AAT-6.7°C
QNH1030 hPa
Density Alt-1,965 ft
Elevation509 ft
Report Wrong Elevation
Raw Report
UKHH 151630Z 02003MPS 9999 BKN010 OVC018 M02/M04 Q1030 R07/450167
NOSIG=

Extra information for UKHH:More info

Metar Taf Metar & Taf Last 4 Metars F.Rules Stats Wind Profile Meteogram Temp Stats Airport Information Weather charts Add Link Nearby VenuesMetar ALERT Operation Metar Decoded Social comments